Time;durP1;ratioP1;P1;durP2;ratioP2;P2;SDS_P1;SDS_P2;PMS_P1;PMS_P2;Temp;Humidity;BMP_temperature;BMP_pressure;BME280_temperature;BME280_humidity;BME280_pressure;Samples;Min_cycle;Max_cycle;Signal;HPM_P1;HPM_P2
2023/09/25 00:02:08;;;;;;;0.10;0.10;;;;;;;9.75;100.00;101999.25;5116149;28;20058;-45
2023/09/25 00:04:34;;;;;;;0.10;0.10;;;;;;;9.67;100.00;101993.72;5115293;28;20015;-44
2023/09/25 00:07:01;;;;;;;0.13;0.13;;;;;;;9.67;100.00;101996.28;5116291;28;20111;-45
2023/09/25 00:09:27;;;;;;;0.20;0.20;;;;;;;9.72;100.00;102004.22;5115983;28;20028;-41
2023/09/25 00:11:52;;;;;;;0.20;0.20;;;;;;;9.72;100.00;102004.22;5115450;28;20036;-42
2023/09/25 00:14:18;;;;;;;0.10;0.10;;;;;;;9.77;100.00;102001.91;5115759;28;20023;-43
2023/09/25 00:16:44;;;;;;;0.10;0.10;;;;;;;9.73;100.00;102000.84;5116181;28;20020;-46
2023/09/25 00:19:09;;;;;;;0.15;0.15;;;;;;;9.67;100.00;102006.59;5115340;28;20031;-42
2023/09/25 00:21:34;;;;;;;0.10;0.10;;;;;;;9.70;100.00;102001.59;5116081;28;20039;-43
2023/09/25 00:24:00;;;;;;;0.20;0.20;;;;;;;9.69;100.00;102004.09;5115108;28;20023;-42
2023/09/25 00:26:25;;;;;;;0.10;0.10;;;;;;;9.70;100.00;102005.88;5115575;28;20023;-42
2023/09/25 00:28:51;;;;;;;0.20;0.20;;;;;;;9.70;100.00;102005.88;5115795;28;20103;-43
2023/09/25 00:31:16;;;;;;;0.20;0.20;;;;;;;9.66;100.00;102006.50;5114651;28;20434;-41
2023/09/25 00:33:41;;;;;;;0.20;0.20;;;;;;;9.61;100.00;102010.53;5115847;28;20459;-41
2023/09/25 00:36:07;;;;;;;0.15;0.15;;;;;;;9.69;100.00;102004.09;5115647;28;20065;-41
2023/09/25 00:38:32;;;;;;;0.20;0.20;;;;;;;9.68;100.00;102002.31;5114530;28;20036;-41
2023/09/25 00:40:57;;;;;;;0.10;0.10;;;;;;;9.68;100.00;102000.63;5115492;28;20111;-41
2023/09/25 00:43:23;;;;;;;0.20;0.20;;;;;;;9.63;100.00;102004.66;5115172;28;20031;-43
2023/09/25 00:45:49;;;;;;;0.10;0.10;;;;;;;9.65;100.00;102007.31;5114687;28;20028;-41
2023/09/25 00:48:34;;;;;;;0.10;0.10;;;;;;;9.60;100.00;102008.75;5115117;28;20528;-43
2023/09/25 00:51:01;;;;;;;0.15;0.15;;;;;;;9.45;100.00;101999.44;5114869;28;20066;-43
2023/09/25 00:53:29;;;;;;;0.10;0.10;;;;;;;9.52;100.00;102005.78;5114282;28;20027;-46
2023/09/25 00:55:55;;;;;;;0.20;0.20;;;;;;;9.51;100.00;102011.72;5115020;28;20023;-41
2023/09/25 00:58:20;;;;;;;0.20;0.20;;;;;;;9.49;100.00;102003.94;5114826;28;20027;-41
2023/09/25 01:00:46;;;;;;;0.20;0.20;;;;;;;9.51;100.00;102007.47;5114413;28;20024;-42
2023/09/25 01:03:12;;;;;;;0.10;0.10;;;;;;;9.47;100.00;102013.25;5115032;28;20039;-40
2023/09/25 01:05:39;;;;;;;0.15;0.15;;;;;;;9.43;100.00;102010.47;5115467;28;20078;-44
2023/09/25 01:08:06;;;;;;;0.20;0.20;;;;;;;9.42;100.00;102009.56;5114499;28;20020;-43
2023/09/25 01:10:32;;;;;;;0.10;0.10;;;;;;;9.33;100.00;102004.78;5113532;28;20031;-42
2023/09/25 01:13:00;;;;;;;0.20;0.20;;;;;;;9.39;100.00;102010.28;5114911;28;20035;-40
2023/09/25 01:15:25;;;;;;;0.10;0.10;;;;;;;9.37;100.00;102016.13;5113932;28;20378;-41
2023/09/25 01:17:51;;;;;;;0.20;0.20;;;;;;;9.40;100.00;102016.31;5114821;28;20470;-44
2023/09/25 01:20:17;;;;;;;0.15;0.15;;;;;;;9.32;100.00;102012.44;5113677;28;20530;-41
2023/09/25 01:22:48;;;;;;;0.10;0.10;;;;;;;9.21;100.00;102012.75;5114592;28;20084;-41
2023/09/25 01:25:15;;;;;;;0.20;0.20;;;;;;;9.32;100.00;102015.00;5114359;28;20094;-43
2023/09/25 01:27:42;;;;;;;0.10;0.10;;;;;;;9.37;100.00;102014.47;5114074;28;20024;-45
2023/09/25 01:30:09;;;;;;;0.20;0.20;;;;;;;9.29;100.00;102007.13;5114818;28;20027;-43
2023/09/25 01:32:38;;;;;;;0.10;0.10;;;;;;;9.32;100.00;102002.16;5114271;28;20015;-45
2023/09/25 01:35:11;;;;;;;0.20;0.20;;;;;;;9.28;100.00;102003.66;5113823;28;20048;-41
2023/09/25 01:37:37;;;;;;;0.20;0.20;;;;;;;9.31;100.00;102002.94;5114457;28;20047;-42
2023/09/25 01:40:08;;;;;;;0.10;0.10;;;;;;;9.31;100.00;101997.81;5114263;28;20459;-44
2023/09/25 01:42:34;;;;;;;0.20;0.20;;;;;;;9.35;100.00;101998.06;5113069;28;20028;-41
2023/09/25 01:44:59;;;;;;;0.20;0.20;;;;;;;9.29;100.00;101997.72;5114347;28;20030;-41
2023/09/25 01:47:24;;;;;;;0.10;0.10;;;;;;;9.29;100.00;101999.44;5113965;28;20037;-43
2023/09/25 01:49:49;;;;;;;0.10;0.10;;;;;;;9.35;100.00;101999.75;5113305;28;20073;-43
2023/09/25 01:52:17;;;;;;;0.15;0.15;;;;;;;9.38;100.00;101997.34;5113884;28;20051;-44
2023/09/25 01:54:42;;;;;;;0.10;0.10;;;;;;;9.31;100.00;101998.69;5114114;28;20383;-41
2023/09/25 01:57:08;;;;;;;0.10;0.10;;;;;;;9.37;100.00;101996.47;5113138;28;20036;-42
2023/09/25 01:59:33;;;;;;;0.10;0.10;;;;;;;9.42;100.00;101993.25;5113862;28;20473;-41
2023/09/25 02:01:58;;;;;;;0.20;0.20;;;;;;;9.49;100.00;101993.66;5113797;28;20085;-44
2023/09/25 02:04:23;;;;;;;0.20;0.20;;;;;;;9.45;100.00;101994.28;5112820;28;20479;-42
2023/09/25 02:06:49;;;;;;;0.20;0.20;;;;;;;9.48;100.00;101999.59;5113809;28;20019;-44
2023/09/25 02:09:14;;;;;;;0.20;0.20;;;;;;;9.50;100.00;101987.69;5113593;28;20023;-42
2023/09/25 02:11:40;;;;;;;0.10;0.10;;;;;;;9.46;100.00;101996.03;5112977;28;20030;-43
2023/09/25 02:14:05;;;;;;;0.10;0.10;;;;;;;9.47;100.00;101992.66;5113882;28;20467;-43
2023/09/25 02:16:31;;;;;;;0.10;0.10;;;;;;;9.48;100.00;101994.44;5112653;28;20031;-41
2023/09/25 02:18:56;;;;;;;0.10;0.10;;;;;;;9.47;100.00;101987.53;5113758;28;20064;-42
2023/09/25 02:21:22;;;;;;;0.10;0.10;;;;;;;9.47;100.00;101987.53;5113019;28;20087;-42
2023/09/25 02:23:47;;;;;;;0.15;0.15;;;;;;;9.47;100.00;101982.38;5112948;28;20019;-43
2023/09/25 02:26:13;;;;;;;0.10;0.10;;;;;;;9.51;100.00;101986.88;5113990;28;20102;-46
2023/09/25 02:28:38;;;;;;;0.10;0.10;;;;;;;9.44;100.00;101982.22;5113501;28;20032;-43
2023/09/25 02:31:04;;;;;;;0.20;0.20;;;;;;;9.40;100.00;101985.44;5112666;28;20023;-41
2023/09/25 02:33:29;;;;;;;0.10;0.10;;;;;;;9.41;100.00;101991.47;5113213;28;20379;-41
2023/09/25 02:36:09;;;;;;;0.20;0.20;;;;;;;9.42;100.00;101986.41;5113351;28;20043;-42
2023/09/25 02:38:35;;;;;;;0.10;0.10;;;;;;;9.43;100.00;101987.28;5112550;28;20030;-43
2023/09/25 02:41:00;;;;;;;0.20;0.20;;;;;;;9.43;100.00;101990.75;5113519;28;20023;-41
2023/09/25 02:43:26;;;;;;;0.15;0.15;;;;;;;9.44;100.00;101978.75;5113078;28;20019;-40
2023/09/25 02:45:52;;;;;;;0.10;0.10;;;;;;;9.43;100.00;101979.56;5112524;28;20012;-44
2023/09/25 02:48:17;;;;;;;0.10;0.10;;;;;;;9.41;100.00;101987.19;5113048;28;20028;-43
2023/09/25 02:50:42;;;;;;;0.20;0.20;;;;;;;9.42;100.00;101983.81;5113135;28;20095;-45
2023/09/25 02:53:08;;;;;;;0.15;0.15;;;;;;;9.42;100.00;101983.81;5112748;28;20116;-42
2023/09/25 02:55:34;;;;;;;0.20;0.20;;;;;;;9.42;100.00;101983.81;5113042;28;20114;-45
2023/09/25 02:57:59;;;;;;;0.13;0.13;;;;;;;9.46;100.00;101985.75;5113114;28;20390;-41
2023/09/25 03:00:25;;;;;;;0.20;0.20;;;;;;;9.48;100.00;101984.16;5111969;28;20035;-43
2023/09/25 03:02:50;;;;;;;0.10;0.10;;;;;;;9.50;100.00;101977.41;5112997;28;20020;-44
2023/09/25 03:05:15;;;;;;;0.10;0.10;;;;;;;9.43;100.00;101977.00;5112782;28;20024;-43
2023/09/25 03:07:41;;;;;;;0.10;0.10;;;;;;;9.47;100.00;101979.81;5112471;28;20493;-42
2023/09/25 03:10:07;;;;;;;0.20;0.20;;;;;;;9.49;100.00;101978.19;5112970;28;20473;-45
2023/09/25 03:12:33;;;;;;;0.20;0.20;;;;;;;9.47;100.00;101977.22;5112885;28;20024;-43
2023/09/25 03:14:58;;;;;;;0.10;0.10;;;;;;;9.49;100.00;101980.78;5112182;28;20020;-45
2023/09/25 03:17:24;;;;;;;0.10;0.10;;;;;;;9.41;100.00;101976.91;5112610;28;20024;-44
2023/09/25 03:19:52;;;;;;;0.20;0.20;;;;;;;9.46;100.00;101980.59;5111873;28;20073;-42
2023/09/25 03:22:18;;;;;;;0.20;0.20;;;;;;;9.49;100.00;101980.78;5112732;28;20030;-45
2023/09/25 03:24:44;;;;;;;0.20;0.20;;;;;;;9.53;100.00;101979.25;5113108;28;20020;-40
2023/09/25 03:27:09;;;;;;;0.20;0.20;;;;;;;9.52;100.00;101986.06;5112205;28;20038;-42
2023/09/25 03:29:34;;;;;;;0.20;0.20;;;;;;;9.54;100.00;101978.44;5112788;28;20024;-45
2023/09/25 03:31:59;;;;;;;0.10;0.10;;;;;;;9.56;100.00;101984.53;5112853;28;20028;-42
2023/09/25 03:34:25;;;;;;;0.13;0.13;;;;;;;9.53;100.00;101987.84;5113335;28;20019;-41
2023/09/25 03:36:50;;;;;;;0.10;0.10;;;;;;;9.50;100.00;101989.38;5116978;28;20028;-42
2023/09/25 03:39:17;;;;;;;0.20;0.20;;;;;;;9.52;100.00;101985.19;5115673;28;20063;-45
2023/09/25 03:41:42;;;;;;;0.13;0.13;;;;;;;9.54;100.00;101987.03;5115743;28;20354;-44
2023/09/25 03:44:07;;;;;;;0.20;0.20;;;;;;;9.54;100.00;101984.47;5116770;28;20032;-41
2023/09/25 03:46:33;;;;;;;0.10;0.10;;;;;;;9.51;100.00;101978.28;5116376;28;20069;-43
2023/09/25 03:49:05;;;;;;;0.10;0.10;;;;;;;9.56;100.00;101984.53;5115706;28;20524;-45
2023/09/25 03:51:30;;;;;;;0.20;0.20;;;;;;;9.53;100.00;101977.56;5116416;28;20024;-43
2023/09/25 03:53:56;;;;;;;0.15;0.15;;;;;;;9.58;100.00;101985.53;5116537;28;20107;-43
2023/09/25 03:56:21;;;;;;;0.20;0.20;;;;;;;9.61;100.00;101989.94;5115200;28;20564;-42
2023/09/25 03:58:46;;;;;;;0.10;0.10;;;;;;;9.60;100.00;101983.03;5116520;28;20030;-44
2023/09/25 04:01:12;;;;;;;0.20;0.20;;;;;;;9.62;100.00;101992.59;5115955;28;20106;-42
2023/09/25 04:03:37;;;;;;;0.20;0.20;;;;;;;9.58;100.00;101992.34;5115546;28;20023;-42
2023/09/25 04:06:03;;;;;;;0.20;0.20;;;;;;;9.59;100.00;101987.28;5116134;28;20020;-44
2023/09/25 04:08:28;;;;;;;0.10;0.10;;;;;;;9.55;100.00;101996.53;5116048;28;20400;-42
2023/09/25 04:10:53;;;;;;;0.20;0.20;;;;;;;9.60;100.00;101993.31;5115483;28;20125;-42
2023/09/25 04:13:22;;;;;;;0.20;0.20;;;;;;;9.57;100.00;102001.75;5115747;28;20460;-47
2023/09/25 04:15:47;;;;;;;0.10;0.10;;;;;;;9.55;100.00;101999.13;5116110;28;20020;-42
2023/09/25 04:18:13;;;;;;;0.20;0.20;;;;;;;9.59;100.00;101997.56;5115339;28;20027;-41
2023/09/25 04:20:38;;;;;;;0.20;0.20;;;;;;;9.59;100.00;101994.13;5116049;28;20022;-43
2023/09/25 04:23:04;;;;;;;0.10;0.10;;;;;;;9.54;100.00;101993.88;5115698;28;20493;-43
2023/09/25 04:25:29;;;;;;;0.20;0.20;;;;;;;9.56;100.00;101998.28;5115316;28;20020;-44
2023/09/25 04:27:56;;;;;;;0.13;0.13;;;;;;;9.53;100.00;101993.00;5116002;28;20023;-41
2023/09/25 04:30:22;;;;;;;0.20;0.20;;;;;;;9.50;100.00;101992.84;5114684;28;20114;-40
2023/09/25 04:32:54;;;;;;;0.20;0.20;;;;;;;9.52;100.00;102001.50;5115867;28;20475;-41
2023/09/25 04:35:20;;;;;;;0.10;0.10;;;;;;;9.51;100.00;101999.72;5115613;28;20027;-41
2023/09/25 04:37:45;;;;;;;0.20;0.20;;;;;;;9.54;100.00;102009.31;5114928;28;20019;-42
2023/09/25 04:40:25;;;;;;;0.20;0.20;;;;;;;9.55;100.00;102005.94;5115642;28;20360;-43
2023/09/25 04:42:51;;;;;;;0.10;0.10;;;;;;;9.52;100.00;102013.50;5115454;28;20032;-44
2023/09/25 04:45:18;;;;;;;0.10;0.10;;;;;;;9.52;100.00;102013.50;5114030;28;20379;-44
2023/09/25 04:47:45;;;;;;;0.20;0.20;;;;;;;9.49;100.00;102009.09;5115680;28;20020;-41
2023/09/25 04:50:11;;;;;;;0.20;0.20;;;;;;;9.46;100.00;102006.34;5115525;28;20278;-43
2023/09/25 04:52:38;;;;;;;0.20;0.20;;;;;;;9.46;100.00;102010.59;5114174;28;20624;-42
2023/09/25 04:55:10;;;;;;;0.20;0.20;;;;;;;9.43;100.00;102008.75;5115316;28;20011;-43
2023/09/25 04:57:37;;;;;;;0.20;0.20;;;;;;;9.42;100.00;102009.56;5114737;28;20459;-42
2023/09/25 05:00:14;;;;;;;0.10;0.10;;;;;;;9.43;100.00;102005.31;5114638;28;20103;-43
2023/09/25 05:02:39;;;;;;;0.20;0.20;;;;;;;9.41;100.00;102009.47;5115301;28;20024;-41
2023/09/25 05:05:05;;;;;;;0.10;0.10;;;;;;;9.41;100.00;102010.34;5115120;28;20030;-45
2023/09/25 05:07:30;;;;;;;0.20;0.20;;;;;;;9.35;100.00;102012.63;5113957;28;20028;-40
2023/09/25 05:09:56;;;;;;;0.20;0.20;;;;;;;9.36;100.00;102010.13;5114982;28;20019;-43
2023/09/25 05:12:21;;;;;;;0.20;0.20;;;;;;;9.32;100.00;102013.34;5113633;28;20421;-46
2023/09/25 05:14:46;;;;;;;0.20;0.20;;;;;;;9.33;100.00;102004.78;5114945;28;20110;-41
2023/09/25 05:17:12;;;;;;;0.15;0.15;;;;;;;9.35;100.00;102012.63;5114621;28;20023;-43
2023/09/25 05:19:37;;;;;;;0.13;0.13;;;;;;;9.34;100.00;102013.41;5113832;28;20084;-42
2023/09/25 05:22:02;;;;;;;0.20;0.20;;;;;;;9.34;100.00;102016.00;5114601;28;20043;-42
2023/09/25 05:24:28;;;;;;;0.20;0.20;;;;;;;9.29;100.00;102017.44;5114354;28;20027;-41
2023/09/25 05:26:53;;;;;;;0.20;0.20;;;;;;;9.27;100.00;102017.34;5113640;28;20093;-46
2023/09/25 05:29:19;;;;;;;0.10;0.10;;;;;;;9.31;100.00;102020.94;5114383;28;20472;-41
2023/09/25 05:31:44;;;;;;;0.20;0.20;;;;;;;9.30;100.00;102014.94;5114593;28;20019;-43
2023/09/25 05:34:09;;;;;;;0.20;0.20;;;;;;;9.30;100.00;102020.09;5113503;28;20026;-42
2023/09/25 05:36:35;;;;;;;0.10;0.10;;;;;;;9.33;100.00;102019.34;5114186;28;20108;-42
2023/09/25 05:39:00;;;;;;;0.10;0.10;;;;;;;9.34;100.00;102016.88;5114586;28;20015;-41
2023/09/25 05:41:26;;;;;;;0.20;0.20;;;;;;;9.41;100.00;102019.78;5113184;28;20023;-42
2023/09/25 05:43:53;;;;;;;0.20;0.20;;;;;;;9.41;100.00;102018.06;5114375;28;20016;-42
2023/09/25 05:46:18;;;;;;;;;;;;;;;9.47;100.00;102026.13;5114506;28;20072;-44
2023/09/25 05:48:44;;;;;;;0.20;0.20;;;;;;;9.47;100.00;102027.81;5113522;28;19911;-44
2023/09/25 05:51:09;;;;;;;0.28;0.28;;;;;;;9.49;100.00;102029.66;5114104;28;20273;-44
2023/09/25 05:53:34;;;;;;;0.30;0.30;;;;;;;9.46;100.00;102028.63;5113859;28;20550;-42
2023/09/25 05:56:00;;;;;;;0.20;0.20;;;;;;;9.49;100.00;102031.34;5112821;28;20015;-42
2023/09/25 05:58:25;;;;;;;0.20;0.20;;;;;;;9.49;100.00;102023.63;5113508;28;20428;-41
2023/09/25 06:00:50;;;;;;;0.20;0.20;;;;;;;9.52;100.00;102016.94;5113869;28;20031;-44
2023/09/25 06:03:16;;;;;;;0.20;0.20;;;;;;;9.59;100.00;102027.56;5112867;28;20489;-42
2023/09/25 06:05:42;;;;;;;0.20;0.20;;;;;;;9.62;100.00;102027.72;5113784;28;20030;-42
2023/09/25 06:08:08;;;;;;;0.20;0.20;;;;;;;9.67;100.00;102037.47;5113908;28;20166;-41
2023/09/25 06:10:33;;;;;;;0.10;0.10;;;;;;;9.71;100.00;102038.53;5112610;28;20019;-44
2023/09/25 06:13:00;;;;;;;0.10;0.10;;;;;;;9.78;100.00;102040.59;5113944;28;20169;-44
2023/09/25 06:15:25;;;;;;;0.10;0.10;;;;;;;9.85;100.00;102036.66;5113526;28;20039;-46
2023/09/25 06:17:51;;;;;;;0.20;0.20;;;;;;;9.86;100.00;102031.59;5112722;28;20023;-41
2023/09/25 06:20:16;;;;;;;0.20;0.20;;;;;;;9.95;100.00;102035.44;5113284;28;20464;-43
2023/09/25 06:22:43;;;;;;;0.20;0.20;;;;;;;10.02;100.00;102030.69;5112578;28;20035;-47
2023/09/25 06:25:11;;;;;;;0.10;0.10;;;;;;;10.07;100.00;102033.50;5113424;28;20049;-46
2023/09/25 06:27:36;;;;;;;0.20;0.20;;;;;;;10.15;100.00;102029.63;5113636;28;20024;-41
2023/09/25 06:30:02;;;;;;;0.10;0.10;;;;;;;10.20;100.00;102033.31;5112782;28;20032;-41
2023/09/25 06:32:27;;;;;;;0.20;0.20;;;;;;;10.30;100.00;102036.34;5113219;28;20019;-41
2023/09/25 06:34:53;;;;;;;0.10;0.10;;;;;;;10.37;100.00;102033.31;5113380;28;20121;-44
2023/09/25 06:37:18;;;;;;;0.10;0.10;;;;;;;10.46;100.00;102035.47;5112118;28;20044;-44
2023/09/25 06:39:43;;;;;;;0.10;0.10;;;;;;;10.58;100.00;102037.75;5113200;28;20022;-44
2023/09/25 06:42:09;;;;;;;0.20;0.20;;;;;;;10.67;100.00;102043.34;5113079;28;20487;-44
2023/09/25 06:44:34;;;;;;;0.20;0.20;;;;;;;10.79;100.00;102043.03;5112110;28;20036;-44
2023/09/25 06:46:59;;;;;;;0.20;0.20;;;;;;;10.85;100.00;102041.63;5113352;28;20028;-41
2023/09/25 06:49:24;;;;;;;0.20;0.20;;;;;;;10.95;100.00;102044.63;5113045;28;20082;-45
2023/09/25 06:51:50;;;;;;;0.10;0.10;;;;;;;11.04;100.00;102042.53;5112365;28;20019;-43
2023/09/25 06:54:15;;;;;;;0.20;0.20;;;;;;;11.12;100.00;102042.88;5112851;28;20016;-42
2023/09/25 06:56:40;;;;;;;0.10;0.10;;;;;;;11.22;100.00;102042.50;5112813;28;20085;-42
2023/09/25 06:59:06;;;;;;;0.10;0.10;;;;;;;11.29;100.00;102033.31;5112452;28;20530;-42
2023/09/25 07:01:31;;;;;;;0.10;0.10;;;;;;;11.44;100.00;102041.78;5112843;28;20043;-41
2023/09/25 07:03:56;;;;;;;0.10;0.10;;;;;;;11.53;100.00;102034.44;5113103;28;20027;-42
2023/09/25 07:06:21;;;;;;;0.20;0.20;;;;;;;11.66;100.00;102042.75;5111807;28;20069;-42
2023/09/25 07:08:47;;;;;;;0.20;0.20;;;;;;;11.79;100.00;102039.88;5113745;28;20497;-44
2023/09/25 07:11:12;;;;;;;0.10;0.10;;;;;;;11.90;100.00;102031.69;5116838;28;20031;-43
2023/09/25 07:13:37;;;;;;;0.20;0.20;;;;;;;12.04;100.00;102040.09;5116635;28;20106;-42
2023/09/25 07:16:04;;;;;;;0.20;0.20;;;;;;;12.19;100.00;102038.16;5117386;28;20116;-43
2023/09/25 07:18:30;;;;;;;0.20;0.20;;;;;;;12.34;100.00;102040.47;5116633;28;20034;-41
2023/09/25 07:20:58;;;;;;;0.10;0.10;;;;;;;12.46;100.00;102035.81;5116185;28;20028;-42
2023/09/25 07:23:24;;;;;;;0.10;0.10;;;;;;;12.58;100.00;102039.72;5116776;28;20065;-42
2023/09/25 07:25:49;;;;;;;0.20;0.20;;;;;;;12.76;100.00;102039.59;5116956;28;20028;-41
2023/09/25 07:28:14;;;;;;;0.10;0.10;;;;;;;12.89;100.00;102046.13;5115935;28;20039;-43
2023/09/25 07:30:45;;;;;;;0.10;0.10;;;;;;;13.01;100.00;102041.41;5117062;28;20038;-45
2023/09/25 07:33:12;;;;;;;0.10;0.10;;;;;;;13.15;100.00;102035.06;5116076;28;20023;-41
2023/09/25 07:35:38;;;;;;;0.10;0.10;;;;;;;13.22;100.00;102036.19;5116734;28;20028;-42
2023/09/25 07:38:04;;;;;;;0.20;0.20;;;;;;;13.31;98.39;102040.81;5116572;28;20076;-43
2023/09/25 07:40:29;;;;;;;0.10;0.10;;;;;;;13.46;98.63;102033.66;5115778;28;20035;-43
2023/09/25 07:42:54;;;;;;;0.10;0.10;;;;;;;13.60;95.07;102038.47;5116435;28;20431;-43
2023/09/25 07:45:22;;;;;;;0.10;0.10;;;;;;;13.73;95.13;102040.66;5116385;28;20028;-42
2023/09/25 07:47:48;;;;;;;;;;;;;;;13.83;96.24;102039.28;5116296;28;20050;-45
2023/09/25 07:50:13;;;;;;;0.10;0.10;;;;;;;13.96;93.73;102040.59;5116188;28;19918;-45
2023/09/25 07:52:40;;;;;;;0.10;0.10;;;;;;;14.08;92.53;102033.22;5116408;28;20042;-41
2023/09/25 07:55:10;;;;;;;0.10;0.10;;;;;;;14.16;89.67;102034.41;5115644;28;20080;-42
2023/09/25 07:57:39;;;;;;;0.10;0.10;;;;;;;14.33;90.51;102036.66;5115814;28;20067;-44
2023/09/25 08:02:47;;;;;;;0.10;0.10;;;;;;;14.53;87.78;102042.50;5099600;28;20097;-41
2023/09/25 08:05:18;;;;;;;0.10;0.10;;;;;;;14.60;85.95;102047.06;5115979;28;20478;-42
2023/09/25 08:07:43;;;;;;;0.10;0.10;;;;;;;14.72;88.83;102046.59;5116125;28;20471;-45
2023/09/25 08:10:11;;;;;;;0.10;0.10;;;;;;;14.78;86.25;102049.41;5115527;28;20063;-45
2023/09/25 08:12:36;;;;;;;0.10;0.10;;;;;;;14.84;84.61;102042.66;5115952;28;20103;-46
2023/09/25 08:15:02;;;;;;;0.10;0.10;;;;;;;14.92;86.87;102056.72;5116038;28;20114;-42
2023/09/25 08:17:27;;;;;;;0.10;0.10;;;;;;;15.00;86.51;102044.84;5114916;28;20031;-43
2023/09/25 08:19:53;;;;;;;0.10;0.10;;;;;;;15.04;86.05;102041.53;5115237;28;20016;-46
2023/09/25 08:22:18;;;;;;;0.10;0.10;;;;;;;15.07;82.07;102044.22;5115041;28;20053;-43
2023/09/25 08:24:44;;;;;;;0.10;0.10;;;;;;;15.18;83.82;102048.84;5115963;28;20030;-42
2023/09/25 08:27:09;;;;;;;0.10;0.10;;;;;;;15.23;84.46;102052.47;5115789;28;20064;-41
2023/09/25 08:29:35;;;;;;;0.10;0.10;;;;;;;15.26;84.51;102049.94;5114793;28;20557;-41
2023/09/25 08:32:01;;;;;;;0.00;0.00;;;;;;;15.29;83.49;102044.88;5115606;28;20471;-42
2023/09/25 08:34:26;;;;;;;0.10;0.10;;;;;;;15.29;80.45;102043.13;5115332;28;20485;-44
2023/09/25 08:36:52;;;;;;;0.10;0.10;;;;;;;15.38;80.44;102039.94;5115044;28;20078;-42
2023/09/25 08:39:17;;;;;;;0.10;0.10;;;;;;;15.53;81.20;102036.00;5115421;28;20028;-45
2023/09/25 08:41:44;;;;;;;0.10;0.10;;;;;;;15.69;80.19;102024.34;5115810;28;20036;-46
2023/09/25 08:44:10;;;;;;;0.10;0.10;;;;;;;15.91;80.36;102033.63;5114602;28;20523;-43
2023/09/25 08:46:35;;;;;;;0.10;0.10;;;;;;;16.00;75.66;102023.47;5115091;28;20023;-42
2023/09/25 08:49:02;;;;;;;0.10;0.10;;;;;;;16.23;77.56;102021.44;5115327;28;20041;-41
2023/09/25 08:51:34;;;;;;;0.10;0.10;;;;;;;16.40;78.14;102024.47;5114369;28;20054;-42
2023/09/25 08:54:00;;;;;;;0.10;0.10;;;;;;;16.55;74.46;102025.66;5115516;28;20266;-44
2023/09/25 08:56:25;;;;;;;0.10;0.10;;;;;;;16.69;75.25;102026.84;5114873;28;20032;-44
2023/09/25 08:58:52;;;;;;;0.10;0.10;;;;;;;16.72;71.75;102026.94;5114358;28;20043;-43
2023/09/25 09:01:18;;;;;;;0.10;0.10;;;;;;;16.75;72.35;102027.00;5114825;28;20046;-41
2023/09/25 09:03:43;;;;;;;0.10;0.10;;;;;;;16.98;74.13;102021.47;5115128;28;20020;-43
2023/09/25 09:06:09;;;;;;;0.10;0.10;;;;;;;17.02;68.09;102019.84;5114365;28;20076;-43
2023/09/25 09:08:36;;;;;;;0.00;0.00;;;;;;;17.00;68.33;102027.59;5114745;28;20049;-42
2023/09/25 09:11:09;;;;;;;0.10;0.10;;;;;;;17.04;68.85;102025.94;5115136;28;20409;-43
2023/09/25 09:13:49;;;;;;;0.10;0.10;;;;;;;17.30;71.57;102023.00;5113755;28;20519;-43
2023/09/25 09:16:16;;;;;;;0.10;0.10;;;;;;;17.50;68.94;102033.84;5114393;28;20482;-45
2023/09/25 09:18:42;;;;;;;0.05;0.05;;;;;;;17.42;65.54;102029.34;5114133;28;20031;-43
2023/09/25 09:21:24;;;;;;;0.10;0.10;;;;;;;17.35;67.89;102019.66;5114680;28;20046;-46
2023/09/25 09:23:51;;;;;;;0.10;0.10;;;;;;;17.38;67.33;102017.09;5114909;28;20027;-44
2023/09/25 09:26:16;;;;;;;0.10;0.10;;;;;;;17.43;68.47;102025.91;5113645;28;20018;-42
2023/09/25 09:28:43;;;;;;;0.00;0.00;;;;;;;17.36;65.93;102026.59;5114471;28;20103;-43
2023/09/25 09:31:10;;;;;;;0.10;0.10;;;;;;;17.43;67.35;102028.50;5113961;28;20019;-45
2023/09/25 09:33:42;;;;;;;0.10;0.10;;;;;;;17.32;69.25;102034.34;5113352;28;20031;-42
2023/09/25 09:36:08;;;;;;;0.10;0.10;;;;;;;17.30;67.33;102020.41;5114577;28;20016;-46
2023/09/25 09:38:36;;;;;;;0.10;0.10;;;;;;;17.66;69.65;102032.41;5114061;28;20473;-42
2023/09/25 09:41:03;;;;;;;0.08;0.08;;;;;;;17.81;67.87;102026.63;5113367;28;20034;-44
2023/09/25 09:43:29;;;;;;;0.03;0.03;;;;;;;18.03;65.53;102025.28;5114508;28;20115;-43
2023/09/25 09:45:56;;;;;;;0.10;0.10;;;;;;;18.14;65.84;102030.69;5114193;28;20100;-44
2023/09/25 09:48:22;;;;;;;0.10;0.10;;;;;;;18.52;66.63;102033.06;5113204;28;20032;-45
2023/09/25 09:50:49;;;;;;;0.10;0.10;;;;;;;18.91;63.76;102034.53;5114191;28;20098;-42
2023/09/25 09:53:17;;;;;;;0.10;0.10;;;;;;;19.12;61.59;102035.69;5113888;28;20085;-45
2023/09/25 09:55:44;;;;;;;0.00;0.00;;;;;;;19.16;61.94;102040.09;5113158;28;20027;-44
2023/09/25 09:58:11;;;;;;;0.00;0.00;;;;;;;19.50;61.00;102038.78;5113836;28;20123;-42
2023/09/25 10:00:38;;;;;;;0.10;0.10;;;;;;;19.45;60.03;102042.19;5114158;28;20016;-45
2023/09/25 10:03:05;;;;;;;0.00;0.00;;;;;;;19.33;57.93;102053.41;5113411;28;20034;-43
2023/09/25 10:05:31;;;;;;;0.00;0.00;;;;;;;19.50;60.01;102046.63;5113660;28;20024;-46
2023/09/25 10:08:09;;;;;;;0.00;0.00;;;;;;;19.58;61.47;102050.19;5113039;28;20034;-45
2023/09/25 10:10:40;;;;;;;0.10;0.10;;;;;;;19.57;60.89;102047.56;5113618;28;20033;-46
2023/09/25 10:13:26;;;;;;;0.00;0.00;;;;;;;19.88;61.73;102045.31;5113981;28;20027;-45
2023/09/25 10:15:53;;;;;;;0.00;0.00;;;;;;;19.79;59.26;102042.56;5112516;28;20036;-43
2023/09/25 10:18:19;;;;;;;0.00;0.00;;;;;;;19.73;57.58;102041.63;5113450;28;20102;-44
2023/09/25 10:20:46;;;;;;;0.00;0.00;;;;;;;19.70;57.45;102041.63;5113574;28;20032;-44
2023/09/25 10:23:23;;;;;;;0.00;0.00;;;;;;;19.85;59.41;102042.66;5112590;28;20028;-44
2023/09/25 10:26:02;;;;;;;0.00;0.00;;;;;;;19.87;57.65;102035.69;5113661;28;20030;-43
2023/09/25 10:28:31;;;;;;;0.00;0.00;;;;;;;19.85;56.79;102024.34;5113409;28;20035;-44
2023/09/25 10:31:05;;;;;;;0.00;0.00;;;;;;;20.03;57.75;102026.28;5112705;28;20045;-45
2023/09/25 10:33:37;;;;;;;0.00;0.00;;;;;;;20.10;56.57;102029.81;5113410;28;20031;-45
2023/09/25 10:36:04;;;;;;;0.00;0.00;;;;;;;20.18;55.75;102041.22;5112664;28;20066;-46
2023/09/25 10:38:36;;;;;;;0.00;0.00;;;;;;;20.22;55.81;102043.03;5113273;28;20202;-45
2023/09/25 10:41:06;;;;;;;0.00;0.00;;;;;;;20.29;56.64;102036.94;5113347;28;20051;-43
2023/09/25 10:43:32;;;;;;;0.00;0.00;;;;;;;20.04;56.30;102039.38;5111960;28;20471;-40
2023/09/25 10:45:58;;;;;;;0.00;0.00;;;;;;;20.03;55.97;102034.97;5113255;28;20473;-44
2023/09/25 10:48:25;;;;;;;0.00;0.00;;;;;;;20.32;58.38;102028.25;5113100;28;20024;-44
2023/09/25 10:50:50;;;;;;;0.03;0.03;;;;;;;20.70;58.42;102025.94;5112487;28;20024;-44
2023/09/25 10:53:16;;;;;;;0.00;0.00;;;;;;;20.82;56.42;102026.88;5112747;28;20068;-42
2023/09/25 10:55:42;;;;;;;0.00;0.00;;;;;;;20.75;54.45;102018.13;5113130;28;20023;-42
2023/09/25 10:58:10;;;;;;;0.00;0.00;;;;;;;20.95;56.40;102026.06;5111998;28;20115;-44
2023/09/25 11:00:38;;;;;;;;;;;;;;;21.34;57.25;102024.50;5113418;28;20016;-41
2023/09/25 11:03:04;;;;;;;0.00;0.00;;;;;;;21.28;53.61;102034.06;5113751;28;19918;-46
2023/09/25 11:05:31;;;;;;;0.00;0.00;;;;;;;21.44;52.94;102037.66;5112170;28;20020;-45
2023/09/25 11:07:57;;;;;;;0.00;0.00;;;;;;;21.32;53.41;102041.97;5112987;28;20494;-46
2023/09/25 11:10:27;;;;;;;0.00;0.00;;;;;;;21.18;51.40;102046.28;5112713;28;20031;-45
2023/09/25 11:12:53;;;;;;;0.00;0.00;;;;;;;21.30;51.08;102048.94;5112192;28;20032;-47
2023/09/25 11:15:18;;;;;;;0.00;0.00;;;;;;;21.53;51.82;102051.66;5112919;28;20532;-46
2023/09/25 11:17:47;;;;;;;0.00;0.00;;;;;;;21.61;50.01;102043.84;5112930;28;20020;-42
2023/09/25 11:20:20;;;;;;;0.00;0.00;;;;;;;21.63;49.30;102042.09;5111811;28;20467;-43
2023/09/25 11:22:46;;;;;;;0.00;0.00;;;;;;;21.91;50.49;102042.19;5112874;28;20055;-45
2023/09/25 11:25:15;;;;;;;0.00;0.00;;;;;;;22.02;49.87;102035.16;5111690;28;20094;-44